createdAt,value
2017-12-26T00:01:06.126Z,81.85
2017-12-26T00:03:33.640Z,81.77
2017-12-26T00:06:01.183Z,81.31
2017-12-26T00:08:28.695Z,81.28
2017-12-26T00:10:56.212Z,80.90
2017-12-26T00:13:23.730Z,80.43
2017-12-26T00:15:51.262Z,80.53
2017-12-26T00:18:18.828Z,80.02
2017-12-26T00:20:46.284Z,80.18
2017-12-26T00:23:13.789Z,80.01
2017-12-26T00:25:41.247Z,80.38
2017-12-26T00:28:10.555Z,80.99
2017-12-26T00:30:38.012Z,80.84
2017-12-26T00:33:05.468Z,80.82
2017-12-26T00:35:32.943Z,81.34
2017-12-26T00:38:00.441Z,81.28
2017-12-26T00:40:27.897Z,81.46
2017-12-26T00:42:55.378Z,81.42
2017-12-26T00:45:22.832Z,81.74
2017-12-26T00:47:50.309Z,80.94
2017-12-26T00:50:17.772Z,81.12
2017-12-26T00:52:45.226Z,81.42
2017-12-26T00:55:12.676Z,81.59
2017-12-26T00:57:40.172Z,81.70
2017-12-26T01:00:07.623Z,81.75
2017-12-26T01:02:35.077Z,81.74
2017-12-26T01:05:02.559Z,81.63
2017-12-26T01:07:30.013Z,81.49
2017-12-26T01:09:57.480Z,81.64
2017-12-26T01:12:24.932Z,81.38
2017-12-26T01:14:52.392Z,81.48
2017-12-26T01:17:19.852Z,81.63
2017-12-26T01:19:47.305Z,81.27
2017-12-26T01:22:14.758Z,80.90
2017-12-26T01:24:42.241Z,80.87
2017-12-26T01:27:09.694Z,80.85
2017-12-26T01:29:37.148Z,80.76
2017-12-26T01:32:04.597Z,80.65
2017-12-26T01:34:32.087Z,80.65
2017-12-26T01:36:59.625Z,80.59
2017-12-26T01:39:27.108Z,80.66
2017-12-26T01:41:54.625Z,80.79
2017-12-26T01:44:22.074Z,80.93
2017-12-26T01:46:49.532Z,80.81
2017-12-26T01:49:16.980Z,80.81
2017-12-26T01:51:44.457Z,81.01
2017-12-26T01:54:11.904Z,80.82
2017-12-26T01:56:39.398Z,80.63
2017-12-26T01:59:06.860Z,80.83
2017-12-26T02:01:34.313Z,80.67
2017-12-26T02:04:02.594Z,80.60
2017-12-26T02:06:30.038Z,80.43
2017-12-26T02:08:57.510Z,80.70
2017-12-26T02:11:25.041Z,80.39
2017-12-26T02:13:52.645Z,80.21
2017-12-26T02:16:20.191Z,80.05
2017-12-26T02:18:47.708Z,79.73
2017-12-26T02:21:15.184Z,79.81
2017-12-26T02:23:42.634Z,79.22
2017-12-26T02:26:10.101Z,79.27
2017-12-26T02:28:37.545Z,79.18
2017-12-26T02:31:06.169Z,79.04
2017-12-26T02:33:33.708Z,79.12
2017-12-26T02:36:01.187Z,78.97
2017-12-26T02:38:28.647Z,79.12
2017-12-26T02:40:56.112Z,78.93
2017-12-26T02:43:23.566Z,78.78
2017-12-26T02:45:51.062Z,78.62
2017-12-26T02:48:18.643Z,78.28
2017-12-26T02:50:46.081Z,77.95
2017-12-26T02:53:13.557Z,77.81
2017-12-26T02:55:41.004Z,78.25
2017-12-26T02:58:08.550Z,78.31
2017-12-26T03:00:36.016Z,78.15
2017-12-26T03:03:03.465Z,78.11
2017-12-26T03:05:30.920Z,78.31
2017-12-26T03:07:58.377Z,78.19
2017-12-26T03:10:25.877Z,78.23
2017-12-26T03:12:53.335Z,77.99
2017-12-26T03:15:20.785Z,78.21
2017-12-26T03:17:48.257Z,78.36
2017-12-26T03:20:15.721Z,78.68
2017-12-26T03:22:43.175Z,78.98
2017-12-26T03:25:10.701Z,79.03
2017-12-26T03:27:38.172Z,78.76
2017-12-26T03:30:05.639Z,78.75
2017-12-26T03:32:33.197Z,78.95
2017-12-26T03:35:00.659Z,79.27
2017-12-26T03:37:28.116Z,79.02
2017-12-26T03:39:55.581Z,78.97
2017-12-26T03:42:23.036Z,78.79
2017-12-26T03:44:50.505Z,79.09
2017-12-26T03:47:17.964Z,79.24
2017-12-26T03:49:45.448Z,79.21
2017-12-26T03:52:12.922Z,79.21
2017-12-26T03:54:42.759Z,79.24
2017-12-26T03:57:10.217Z,79.39
2017-12-26T03:59:37.668Z,78.83
2017-12-26T04:02:05.212Z,78.92
2017-12-26T04:04:32.680Z,78.67
2017-12-26T04:07:00.144Z,78.76
2017-12-26T04:09:27.592Z,78.55
2017-12-26T04:11:55.092Z,78.08
2017-12-26T04:14:22.541Z,78.02
2017-12-26T04:16:50.013Z,78.10
2017-12-26T04:19:17.478Z,78.21
2017-12-26T04:21:44.958Z,78.26
2017-12-26T04:24:12.424Z,78.14
2017-12-26T04:26:39.888Z,77.97
2017-12-26T04:29:07.388Z,77.95
2017-12-26T04:31:34.849Z,78.03
2017-12-26T04:34:02.307Z,78.45
2017-12-26T04:36:29.764Z,78.62
2017-12-26T04:38:57.260Z,78.65
2017-12-26T04:41:24.714Z,78.58
2017-12-26T04:43:52.372Z,78.61
2017-12-26T04:46:19.818Z,78.69
2017-12-26T04:48:47.352Z,78.80
2017-12-26T04:51:14.818Z,78.83
2017-12-26T04:53:42.271Z,78.70
2017-12-26T04:56:09.866Z,78.82
2017-12-26T04:58:37.318Z,78.87
2017-12-26T05:01:04.831Z,78.93
2017-12-26T05:03:32.449Z,79.04
2017-12-26T05:05:59.925Z,78.93
2017-12-26T05:08:27.417Z,78.82
2017-12-26T05:10:54.881Z,78.94
2017-12-26T05:13:22.367Z,79.22
2017-12-26T05:15:49.841Z,79.06
2017-12-26T05:18:17.313Z,79.24
2017-12-26T05:20:44.755Z,79.08
2017-12-26T05:23:12.242Z,79.14
2017-12-26T05:25:39.685Z,79.07
2017-12-26T05:28:07.138Z,79.01
2017-12-26T05:30:34.590Z,78.85
2017-12-26T05:33:02.029Z,78.88
2017-12-26T05:35:29.487Z,78.74
2017-12-26T05:37:56.941Z,78.53
2017-12-26T05:40:24.406Z,78.72
2017-12-26T05:42:51.868Z,78.80
2017-12-26T05:45:19.342Z,78.73
2017-12-26T05:47:46.828Z,78.46
2017-12-26T05:50:14.301Z,78.67
2017-12-26T05:52:41.764Z,78.75
2017-12-26T05:55:09.228Z,78.66
2017-12-26T05:57:36.681Z,78.80
2017-12-26T06:00:04.172Z,78.80
2017-12-26T06:02:31.634Z,78.76
2017-12-26T06:04:59.089Z,78.76
2017-12-26T06:07:26.602Z,79.03
2017-12-26T06:09:54.115Z,79.05
2017-12-26T06:12:21.584Z,79.08
2017-12-26T06:14:49.050Z,79.08
2017-12-26T06:17:16.586Z,79.39
2017-12-26T06:19:44.085Z,79.33
2017-12-26T06:22:11.502Z,79.21
2017-12-26T06:24:39.206Z,79.17
2017-12-26T06:27:06.661Z,79.23
2017-12-26T06:29:34.116Z,79.53
2017-12-26T06:32:01.582Z,79.36
2017-12-26T06:34:29.044Z,79.18
2017-12-26T06:36:56.510Z,79.01
2017-12-26T06:39:23.978Z,78.96
2017-12-26T06:41:51.436Z,79.15
2017-12-26T06:44:18.924Z,79.06
2017-12-26T06:46:46.368Z,79.12
2017-12-26T06:49:13.836Z,79.11
2017-12-26T06:51:41.312Z,79.09
2017-12-26T06:54:08.860Z,79.09
2017-12-26T06:56:36.336Z,79.04
2017-12-26T06:59:03.785Z,78.92
2017-12-26T07:01:31.253Z,78.84
2017-12-26T07:03:58.697Z,78.73
2017-12-26T07:06:26.159Z,78.78
2017-12-26T07:08:53.609Z,78.66
2017-12-26T07:11:21.149Z,78.69
2017-12-26T07:13:48.597Z,78.39
2017-12-26T07:16:16.060Z,78.17
2017-12-26T07:18:43.547Z,77.78
2017-12-26T07:21:16.572Z,77.70
2017-12-26T07:23:44.138Z,77.77
2017-12-26T07:26:11.609Z,77.19
2017-12-26T07:28:39.065Z,77.04
2017-12-26T07:31:06.570Z,76.96
2017-12-26T07:33:34.116Z,76.96
2017-12-26T07:36:01.568Z,77.01
2017-12-26T07:38:29.075Z,76.74
2017-12-26T07:40:56.530Z,76.78
2017-12-26T07:43:24.018Z,76.75
2017-12-26T07:45:51.516Z,76.88
2017-12-26T07:48:18.972Z,76.63
2017-12-26T07:50:46.472Z,76.45
2017-12-26T07:53:13.988Z,76.55
2017-12-26T07:55:41.476Z,76.36
2017-12-26T07:58:09.089Z,76.06
2017-12-26T08:00:36.549Z,75.99
2017-12-26T08:03:04.087Z,75.98
2017-12-26T08:05:31.551Z,76.16
2017-12-26T08:07:59.085Z,76.14
2017-12-26T08:10:26.538Z,76.35
2017-12-26T08:12:53.995Z,76.36
2017-12-26T08:15:21.444Z,76.26
2017-12-26T08:17:48.917Z,76.43
2017-12-26T08:20:16.381Z,76.14
2017-12-26T08:22:43.846Z,76.12
2017-12-26T08:25:11.312Z,76.12
2017-12-26T08:27:38.845Z,75.94
2017-12-26T08:30:06.288Z,75.74
2017-12-26T08:32:33.763Z,75.73
2017-12-26T08:35:01.217Z,75.71
2017-12-26T08:37:28.655Z,75.55
2017-12-26T08:39:56.118Z,75.82
2017-12-26T08:42:23.556Z,75.79
2017-12-26T08:44:51.070Z,75.68
2017-12-26T08:47:18.515Z,75.57
2017-12-26T08:49:46.024Z,75.36
2017-12-26T08:52:13.484Z,75.65
2017-12-26T08:54:41.683Z,75.55
2017-12-26T08:57:09.129Z,75.35
2017-12-26T08:59:36.588Z,75.14
2017-12-26T09:02:04.056Z,74.99
2017-12-26T09:04:31.503Z,74.91
2017-12-26T09:06:59.039Z,74.88
2017-12-26T09:09:26.484Z,74.74
2017-12-26T09:11:53.942Z,74.72
2017-12-26T09:14:21.417Z,74.98
2017-12-26T09:16:48.905Z,74.72
2017-12-26T09:19:16.361Z,74.46
2017-12-26T09:21:43.848Z,74.66
2017-12-26T09:24:11.416Z,74.41
2017-12-26T09:26:38.864Z,74.30
2017-12-26T09:29:06.391Z,74.39
2017-12-26T09:31:33.846Z,74.15
2017-12-26T09:34:01.318Z,74.68
2017-12-26T09:36:28.776Z,74.44
2017-12-26T09:39:00.418Z,74.54
2017-12-26T09:41:27.872Z,74.38
2017-12-26T09:43:55.384Z,74.22
2017-12-26T09:46:22.834Z,73.83
2017-12-26T09:48:50.295Z,73.43
2017-12-26T09:51:18.481Z,73.25
2017-12-26T09:53:46.041Z,73.39
2017-12-26T09:56:13.482Z,73.20
2017-12-26T09:58:40.956Z,72.99
2017-12-26T10:01:08.440Z,72.64
2017-12-26T10:03:35.982Z,72.07
2017-12-26T10:06:03.544Z,71.71
2017-12-26T10:08:31.001Z,71.55
2017-12-26T10:10:58.475Z,70.95
2017-12-26T10:13:25.958Z,71.34
2017-12-26T10:15:53.450Z,70.52
2017-12-26T10:18:20.906Z,70.07
2017-12-26T10:20:48.369Z,70.31
2017-12-26T10:23:15.826Z,70.06
2017-12-26T10:25:43.284Z,69.92
2017-12-26T10:28:10.753Z,69.98
2017-12-26T10:30:38.274Z,70.33
2017-12-26T10:33:05.846Z,70.75
2017-12-26T10:35:33.308Z,70.95
2017-12-26T10:38:00.794Z,71.04
2017-12-26T10:40:28.268Z,70.60
2017-12-26T10:42:55.731Z,70.76
2017-12-26T10:45:23.285Z,70.30
2017-12-26T10:47:50.865Z,69.95
2017-12-26T10:50:18.381Z,70.53
2017-12-26T10:52:45.846Z,70.50
2017-12-26T10:55:13.377Z,70.51
2017-12-26T10:57:41.074Z,70.30
2017-12-26T11:00:08.534Z,70.35
2017-12-26T11:02:36.003Z,70.91
2017-12-26T11:05:03.492Z,70.48
2017-12-26T11:07:31.024Z,69.93
2017-12-26T11:09:58.488Z,68.90
2017-12-26T11:12:25.950Z,68.41
2017-12-26T11:14:53.421Z,68.16
2017-12-26T11:17:20.881Z,67.75
2017-12-26T11:19:48.360Z,68.03
2017-12-26T11:22:15.817Z,67.93
2017-12-26T11:24:43.284Z,67.28
2017-12-26T11:27:10.755Z,66.70
2017-12-26T11:29:38.201Z,65.23
2017-12-26T11:32:05.675Z,65.16
2017-12-26T11:34:33.123Z,63.87
2017-12-26T11:37:00.577Z,64.39
2017-12-26T11:39:28.054Z,63.62
2017-12-26T11:41:55.563Z,62.49
2017-12-26T11:44:23.025Z,62.59
2017-12-26T11:46:50.473Z,61.47
2017-12-26T11:49:17.942Z,59.62
2017-12-26T11:51:45.408Z,57.69
2017-12-26T11:54:13.009Z,56.99
2017-12-26T11:56:40.450Z,56.42
2017-12-26T11:59:07.918Z,56.33
2017-12-26T12:01:35.385Z,56.54
2017-12-26T12:04:02.865Z,57.32
2017-12-26T12:06:30.314Z,58.98
2017-12-26T12:08:57.788Z,58.85
2017-12-26T12:11:25.257Z,58.11
2017-12-26T12:13:52.756Z,59.13
2017-12-26T12:16:20.226Z,59.19
2017-12-26T12:18:47.773Z,60.10
2017-12-26T12:21:15.244Z,59.58
2017-12-26T12:23:42.720Z,58.91
2017-12-26T12:26:10.295Z,59.49
2017-12-26T12:28:37.783Z,59.34
2017-12-26T12:31:05.281Z,59.53
2017-12-26T12:33:32.746Z,59.37
2017-12-26T12:36:00.280Z,58.90
2017-12-26T12:38:27.733Z,58.93
2017-12-26T12:40:55.318Z,59.85
2017-12-26T12:43:22.793Z,60.23
2017-12-26T12:45:50.269Z,60.44
2017-12-26T12:48:17.828Z,60.32
2017-12-26T12:50:45.300Z,60.51
2017-12-26T12:53:12.848Z,60.86
2017-12-26T12:55:40.342Z,61.14
2017-12-26T12:58:07.810Z,61.57
2017-12-26T13:00:35.407Z,61.49
2017-12-26T13:03:02.957Z,60.85
2017-12-26T13:05:30.456Z,60.46
2017-12-26T13:07:58.222Z,60.08
2017-12-26T13:10:25.787Z,59.94
2017-12-26T13:12:53.284Z,59.63
2017-12-26T13:15:20.749Z,59.50
2017-12-26T13:17:48.200Z,59.15
2017-12-26T13:20:15.662Z,58.90
2017-12-26T13:22:43.147Z,57.75
2017-12-26T13:25:10.640Z,57.59
2017-12-26T13:27:38.116Z,58.15
2017-12-26T13:30:05.578Z,57.54
2017-12-26T13:32:33.141Z,57.58
2017-12-26T13:35:00.628Z,58.30
2017-12-26T13:37:28.107Z,58.58
2017-12-26T13:39:55.559Z,57.57
2017-12-26T13:42:23.021Z,57.62
2017-12-26T13:44:50.550Z,56.49
2017-12-26T13:47:18.017Z,56.55
2017-12-26T13:49:45.479Z,57.62
2017-12-26T13:52:12.944Z,57.93
2017-12-26T13:54:40.391Z,58.54
2017-12-26T13:57:07.860Z,58.75
2017-12-26T13:59:35.305Z,58.05
2017-12-26T14:02:02.750Z,57.77
2017-12-26T14:04:30.208Z,56.72
2017-12-26T14:06:57.669Z,56.60
2017-12-26T14:09:25.173Z,55.07
2017-12-26T14:11:52.649Z,55.11
2017-12-26T14:14:20.110Z,55.32
2017-12-26T14:16:47.568Z,54.48
2017-12-26T14:19:15.023Z,53.51
2017-12-26T14:21:42.483Z,54.32
2017-12-26T14:24:10.159Z,56.07
2017-12-26T14:26:37.612Z,56.69
2017-12-26T14:29:05.063Z,57.81
2017-12-26T14:31:32.516Z,57.90
2017-12-26T14:33:59.963Z,57.39
2017-12-26T14:36:27.427Z,58.91
2017-12-26T14:38:54.895Z,59.63
2017-12-26T14:41:22.349Z,60.55
2017-12-26T14:43:49.793Z,60.79
2017-12-26T14:46:17.256Z,61.13
2017-12-26T14:48:44.696Z,61.36
2017-12-26T14:51:12.137Z,61.91
2017-12-26T14:53:39.615Z,62.35
2017-12-26T14:56:07.189Z,62.08
2017-12-26T14:58:34.788Z,62.18
2017-12-26T15:01:02.285Z,62.35
2017-12-26T15:03:29.772Z,62.72
2017-12-26T15:05:57.305Z,62.38
2017-12-26T15:08:24.787Z,63.09
2017-12-26T15:10:52.243Z,63.28
2017-12-26T15:13:19.730Z,63.30
2017-12-26T15:15:47.177Z,63.13
2017-12-26T15:18:14.629Z,63.44
2017-12-26T15:20:42.271Z,63.52
2017-12-26T15:23:09.758Z,64.21
2017-12-26T15:25:37.311Z,64.39
2017-12-26T15:28:04.761Z,64.68
2017-12-26T15:30:32.252Z,65.31
2017-12-26T15:32:59.727Z,65.75
2017-12-26T15:35:27.272Z,65.43
2017-12-26T15:37:54.728Z,65.12
2017-12-26T15:40:22.181Z,65.17
2017-12-26T15:42:49.733Z,65.14
2017-12-26T15:45:17.205Z,64.66
2017-12-26T15:47:44.666Z,64.99
2017-12-26T15:50:12.183Z,66.26
2017-12-26T15:52:39.636Z,66.14
2017-12-26T15:55:07.141Z,64.16
2017-12-26T15:57:34.703Z,62.77
2017-12-26T16:00:02.141Z,62.52
2017-12-26T16:02:29.612Z,62.43
2017-12-26T16:04:57.047Z,62.62
2017-12-26T16:07:24.494Z,62.70
2017-12-26T16:09:52.004Z,63.15
2017-12-26T16:12:19.448Z,63.18
2017-12-26T16:14:46.902Z,64.03
2017-12-26T16:17:14.357Z,64.79
2017-12-26T16:19:41.821Z,65.29
2017-12-26T16:22:09.260Z,66.01
2017-12-26T16:24:36.711Z,66.58
2017-12-26T16:27:04.154Z,67.35
2017-12-26T16:29:31.653Z,67.17
2017-12-26T16:31:59.116Z,66.88
2017-12-26T16:34:26.552Z,67.31
2017-12-26T16:36:54.000Z,67.79
2017-12-26T16:39:21.441Z,68.29
2017-12-26T16:41:48.896Z,68.64
2017-12-26T16:44:16.352Z,69.12
2017-12-26T16:46:43.801Z,71.02
2017-12-26T16:49:11.280Z,72.68
2017-12-26T16:51:39.066Z,73.11
2017-12-26T16:54:06.552Z,74.27
2017-12-26T16:56:34.018Z,73.66
2017-12-26T16:59:01.468Z,75.18
2017-12-26T17:01:28.911Z,76.45
2017-12-26T17:03:56.360Z,78.39
2017-12-26T17:06:23.818Z,77.61
2017-12-26T17:08:51.276Z,78.12
2017-12-26T17:11:18.712Z,79.07
2017-12-26T17:13:46.154Z,78.90
2017-12-26T17:16:13.596Z,81.21
2017-12-26T17:18:41.086Z,82.25
2017-12-26T17:21:08.525Z,82.46
2017-12-26T17:23:36.020Z,83.62
2017-12-26T17:26:03.584Z,83.88
2017-12-26T17:28:31.108Z,83.79
2017-12-26T17:30:58.571Z,84.43
2017-12-26T17:33:26.059Z,84.69
2017-12-26T17:35:53.514Z,85.00
2017-12-26T17:38:20.962Z,84.74
2017-12-26T17:40:48.435Z,84.80
2017-12-26T17:43:15.931Z,85.00
2017-12-26T17:45:43.423Z,84.30
2017-12-26T17:48:10.854Z,83.89
2017-12-26T17:50:38.355Z,83.73
2017-12-26T17:53:05.880Z,83.71
2017-12-26T17:55:33.393Z,83.57
2017-12-26T17:58:00.876Z,82.32
2017-12-26T18:00:28.312Z,80.86
2017-12-26T18:02:55.779Z,79.89
2017-12-26T18:05:23.225Z,79.00
2017-12-26T18:07:50.721Z,78.65
2017-12-26T18:10:18.267Z,78.95
2017-12-26T18:12:45.719Z,78.19
2017-12-26T18:15:13.203Z,77.83
2017-12-26T18:17:40.701Z,77.83
2017-12-26T18:20:08.142Z,77.74
2017-12-26T18:22:35.592Z,77.50
2017-12-26T18:25:03.089Z,77.60
2017-12-26T18:27:30.602Z,77.01
2017-12-26T18:29:58.046Z,77.32
2017-12-26T18:32:25.533Z,76.56
2017-12-26T18:34:53.022Z,76.47
2017-12-26T18:37:20.507Z,76.74
2017-12-26T18:39:48.030Z,76.57
2017-12-26T18:42:15.465Z,76.77
2017-12-26T18:44:42.928Z,77.34
2017-12-26T18:47:10.409Z,77.77
2017-12-26T18:49:37.920Z,77.73
2017-12-26T18:52:05.482Z,78.23
2017-12-26T18:54:32.987Z,78.57
2017-12-26T18:57:00.467Z,79.01
2017-12-26T18:59:27.913Z,79.43
2017-12-26T19:01:55.448Z,79.42
2017-12-26T19:04:22.902Z,79.83
2017-12-26T19:06:50.385Z,80.60
2017-12-26T19:09:17.865Z,80.92
2017-12-26T19:11:45.312Z,81.19
2017-12-26T19:14:12.768Z,81.60
2017-12-26T19:16:40.270Z,81.48
2017-12-26T19:19:07.712Z,81.84
2017-12-26T19:21:35.178Z,82.77
2017-12-26T19:24:05.600Z,83.25
2017-12-26T19:26:33.084Z,82.39
2017-12-26T19:29:00.578Z,82.33
2017-12-26T19:31:28.051Z,82.30
2017-12-26T19:33:55.557Z,82.29
2017-12-26T19:36:22.998Z,81.11
2017-12-26T19:38:50.518Z,80.72
2017-12-26T19:41:18.098Z,80.72
2017-12-26T19:43:45.616Z,80.45
2017-12-26T19:46:13.100Z,79.28
2017-12-26T19:48:40.561Z,78.32
2017-12-26T19:51:08.017Z,78.16
2017-12-26T19:53:35.505Z,77.55
2017-12-26T19:56:03.026Z,77.65
2017-12-26T19:58:30.514Z,77.97
2017-12-26T20:00:58.018Z,77.95
2017-12-26T20:03:25.452Z,77.97
2017-12-26T20:05:52.901Z,78.31
2017-12-26T20:08:20.380Z,78.01
2017-12-26T20:10:47.952Z,77.94
2017-12-26T20:13:15.491Z,77.37
2017-12-26T20:15:43.016Z,77.04
2017-12-26T20:18:10.460Z,77.06
2017-12-26T20:20:37.983Z,77.06
2017-12-26T20:23:05.437Z,77.11
2017-12-26T20:25:32.875Z,77.11
2017-12-26T20:28:06.066Z,77.21
2017-12-26T20:30:33.546Z,77.21
2017-12-26T20:33:01.052Z,77.20
2017-12-26T20:35:28.547Z,77.22
2017-12-26T20:37:56.045Z,77.26
2017-12-26T20:40:23.562Z,77.41
2017-12-26T20:42:51.057Z,77.44
2017-12-26T20:45:18.521Z,77.64
2017-12-26T20:47:46.015Z,77.52
2017-12-26T20:50:13.506Z,77.87
2017-12-26T20:52:40.973Z,77.71
2017-12-26T20:55:08.449Z,77.60
2017-12-26T20:57:35.958Z,77.97
2017-12-26T21:00:03.508Z,78.27
2017-12-26T21:02:30.999Z,78.46
2017-12-26T21:04:58.508Z,78.68
2017-12-26T21:07:26.030Z,78.67
2017-12-26T21:09:53.532Z,78.86
2017-12-26T21:12:21.005Z,78.70
2017-12-26T21:14:48.495Z,78.78
2017-12-26T21:17:15.994Z,78.67
2017-12-26T21:19:43.504Z,78.56
2017-12-26T21:22:11.005Z,78.34
2017-12-26T21:24:38.503Z,78.37
2017-12-26T21:27:06.023Z,78.58
2017-12-26T21:29:33.510Z,78.68
2017-12-26T21:32:01.003Z,78.92
2017-12-26T21:34:28.493Z,78.98
2017-12-26T21:36:56.022Z,78.84
2017-12-26T21:39:23.499Z,78.72
2017-12-26T21:41:51.120Z,78.86
2017-12-26T21:44:18.616Z,78.81
2017-12-26T21:46:46.131Z,78.81
2017-12-26T21:49:13.657Z,78.48
2017-12-26T21:51:41.138Z,78.72
2017-12-26T21:54:08.635Z,78.38
2017-12-26T21:56:36.141Z,78.02
2017-12-26T21:59:03.671Z,77.96
2017-12-26T22:01:31.393Z,78.38
2017-12-26T22:03:58.885Z,78.70
2017-12-26T22:06:26.380Z,79.23
2017-12-26T22:08:53.960Z,79.66
2017-12-26T22:11:21.466Z,80.25
2017-12-26T22:13:48.961Z,80.64
2017-12-26T22:16:16.526Z,80.36
2017-12-26T22:18:44.034Z,80.22
2017-12-26T22:21:11.645Z,80.78
2017-12-26T22:23:39.163Z,81.07
2017-12-26T22:26:06.695Z,81.14
2017-12-26T22:28:34.221Z,80.84
2017-12-26T22:31:01.764Z,81.44
2017-12-26T22:33:29.279Z,81.46
2017-12-26T22:35:56.784Z,81.49
2017-12-26T22:38:24.285Z,81.43
2017-12-26T22:40:51.793Z,81.25
2017-12-26T22:43:19.324Z,81.52
2017-12-26T22:45:46.845Z,81.86
2017-12-26T22:48:14.343Z,82.31
2017-12-26T22:50:41.839Z,82.82
2017-12-26T22:53:09.336Z,82.89
2017-12-26T22:55:36.881Z,83.24
2017-12-26T22:58:04.384Z,82.94
2017-12-26T23:00:31.893Z,82.97
2017-12-26T23:02:59.390Z,82.25
2017-12-26T23:05:26.897Z,81.94
2017-12-26T23:07:54.383Z,81.15
2017-12-26T23:10:21.884Z,80.79
2017-12-26T23:12:49.377Z,80.58
2017-12-26T23:15:23.357Z,80.34
2017-12-26T23:17:56.563Z,79.85
2017-12-26T23:20:29.648Z,79.80
2017-12-26T23:26:09.318Z,79.60
2017-12-26T23:28:42.565Z,79.65
2017-12-26T23:31:15.814Z,79.51
2017-12-26T23:33:48.868Z,79.87
2017-12-26T23:36:22.093Z,79.94
2017-12-26T23:38:55.241Z,80.00
2017-12-26T23:41:28.420Z,80.10
2017-12-26T23:44:01.621Z,80.14
2017-12-26T23:46:34.786Z,80.13
2017-12-26T23:49:07.790Z,80.20
2017-12-26T23:51:41.122Z,80.24
2017-12-26T23:54:14.191Z,80.11
2017-12-26T23:56:47.306Z,80.35
2017-12-26T23:59:20.535Z,80.66
